createdAt,value
2023-08-23T00:00:22.237Z,4.03
2023-08-23T00:03:23.915Z,4.07
2023-08-23T00:06:25.835Z,4.28
2023-08-23T00:09:27.508Z,3.80
2023-08-23T00:12:29.232Z,3.78
2023-08-23T00:15:30.915Z,3.80
2023-08-23T00:18:32.708Z,4.55
2023-08-23T00:21:34.289Z,3.58
2023-08-23T00:24:35.928Z,3.65
2023-08-23T00:27:37.589Z,3.95
2023-08-23T00:30:39.191Z,4.93
2023-08-23T00:33:42.032Z,3.63
2023-08-23T00:36:43.890Z,3.65
2023-08-23T00:39:48.111Z,3.83
2023-08-23T00:42:49.738Z,3.83
2023-08-23T00:45:51.736Z,4.30
2023-08-23T00:48:53.451Z,3.50
2023-08-23T00:51:56.379Z,3.30
2023-08-23T00:54:58.966Z,4.05
2023-08-23T00:58:00.657Z,3.97
2023-08-23T01:01:02.316Z,3.55
2023-08-23T01:04:04.133Z,3.67
2023-08-23T01:07:14.821Z,4.22
2023-08-23T01:10:28.232Z,3.80
2023-08-23T01:13:41.372Z,3.88
2023-08-23T01:16:46.663Z,3.33
2023-08-23T01:19:50.301Z,3.65
2023-08-23T01:23:05.604Z,3.35
2023-08-23T01:26:07.208Z,3.65
2023-08-23T01:29:08.884Z,3.97
2023-08-23T01:32:47.547Z,3.70
2023-08-23T01:36:06.542Z,3.40
2023-08-23T01:39:10.308Z,4.07
2023-08-23T01:42:12.371Z,3.75
2023-08-23T01:45:14.143Z,3.80
2023-08-23T01:48:15.854Z,4.60
2023-08-23T01:51:17.501Z,4.32
2023-08-23T01:54:19.198Z,4.40
2023-08-23T01:57:20.754Z,5.25
2023-08-23T02:00:22.404Z,6.53
2023-08-23T02:03:24.103Z,5.90
2023-08-23T02:06:25.806Z,6.13
2023-08-23T02:09:27.758Z,5.50
2023-08-23T02:12:29.358Z,5.30
2023-08-23T02:15:31.677Z,5.53
2023-08-23T02:18:33.349Z,4.75
2023-08-23T02:21:36.114Z,5.10
2023-08-23T02:24:37.861Z,5.57
2023-08-23T02:27:39.561Z,5.10
2023-08-23T02:30:41.611Z,5.63
2023-08-23T02:33:43.212Z,5.88
2023-08-23T02:36:44.912Z,5.25
2023-08-23T02:39:46.655Z,5.22
2023-08-23T02:42:48.270Z,6.60
2023-08-23T02:45:50.362Z,6.47
2023-08-23T02:48:52.025Z,8.15
2023-08-23T02:51:54.133Z,7.38
2023-08-23T02:54:55.708Z,8.70
2023-08-23T02:57:57.788Z,7.70
2023-08-23T03:00:59.394Z,7.55
2023-08-23T03:04:01.024Z,7.07
2023-08-23T03:07:02.672Z,7.65
2023-08-23T03:10:04.583Z,8.05
2023-08-23T03:13:06.206Z,8.18
2023-08-23T03:16:07.835Z,7.60
2023-08-23T03:19:09.618Z,7.65
2023-08-23T03:22:11.229Z,9.30
2023-08-23T03:25:12.913Z,9.52
2023-08-23T03:28:14.845Z,9.60
2023-08-23T03:31:16.575Z,9.63
2023-08-23T03:34:18.210Z,9.40
2023-08-23T03:37:19.829Z,9.98
2023-08-23T03:40:21.699Z,9.88
2023-08-23T03:43:23.390Z,9.52
2023-08-23T03:46:26.635Z,10.05
2023-08-23T03:49:29.787Z,11.40
2023-08-23T03:52:31.528Z,11.07
2023-08-23T03:55:33.325Z,9.93
2023-08-23T03:58:35.983Z,11.15
2023-08-23T04:01:37.726Z,9.95
2023-08-23T04:04:39.464Z,9.70
2023-08-23T04:07:41.886Z,9.85
2023-08-23T04:10:50.915Z,9.38
2023-08-23T04:13:52.527Z,9.65
2023-08-23T04:16:54.163Z,8.88
2023-08-23T04:19:55.934Z,8.45
2023-08-23T04:22:57.564Z,8.93
2023-08-23T04:25:59.229Z,9.68
2023-08-23T04:29:00.818Z,9.95
2023-08-23T04:32:02.519Z,10.30
2023-08-23T04:35:05.361Z,9.63
2023-08-23T04:38:11.358Z,11.05
2023-08-23T04:41:13.018Z,10.20
2023-08-23T04:44:14.629Z,9.00
2023-08-23T04:47:16.264Z,10.18
2023-08-23T04:50:17.960Z,10.05
2023-08-23T04:53:19.687Z,9.43
2023-08-23T04:56:21.310Z,10.65
2023-08-23T04:59:23.010Z,11.00
2023-08-23T05:02:24.650Z,10.52
2023-08-23T05:05:26.414Z,12.13
2023-08-23T05:08:29.205Z,11.50
2023-08-23T05:11:30.928Z,9.98
2023-08-23T05:14:32.610Z,10.88
2023-08-23T05:17:35.439Z,12.23
2023-08-23T05:20:38.803Z,13.18
2023-08-23T05:23:40.398Z,12.57
2023-08-23T05:26:42.113Z,11.60
2023-08-23T05:29:45.099Z,12.93
2023-08-23T05:32:46.785Z,12.82
2023-08-23T05:35:48.446Z,12.80
2023-08-23T05:38:51.475Z,12.65
2023-08-23T05:41:53.087Z,13.40
2023-08-23T05:44:54.715Z,13.25
2023-08-23T05:47:56.947Z,14.32
2023-08-23T05:50:58.606Z,12.75
2023-08-23T05:54:00.360Z,13.77
2023-08-23T05:57:01.978Z,12.38
2023-08-23T06:00:04.259Z,12.60
2023-08-23T06:03:06.077Z,13.02
2023-08-23T06:06:08.458Z,12.30
2023-08-23T06:09:10.059Z,13.90
2023-08-23T06:12:11.654Z,12.68
2023-08-23T06:15:13.258Z,11.20
2023-08-23T06:18:15.013Z,14.55
2023-08-23T06:21:19.871Z,13.90
2023-08-23T06:24:21.878Z,14.13
2023-08-23T06:27:23.532Z,13.10
2023-08-23T06:30:25.192Z,12.82
2023-08-23T06:33:26.882Z,12.15
2023-08-23T06:36:28.499Z,12.00
2023-08-23T06:39:34.232Z,12.77
2023-08-23T06:42:36.482Z,12.52
2023-08-23T06:45:38.095Z,11.07
2023-08-23T06:48:39.692Z,11.93
2023-08-23T06:51:41.329Z,11.30
2023-08-23T06:54:42.939Z,11.23
2023-08-23T06:57:44.540Z,11.35
2023-08-23T07:00:46.161Z,11.73
2023-08-23T07:03:47.963Z,12.70
2023-08-23T07:06:49.640Z,11.88
2023-08-23T07:09:51.601Z,11.60
2023-08-23T07:12:53.278Z,12.38
2023-08-23T07:15:55.932Z,11.80
2023-08-23T07:18:58.106Z,12.15
2023-08-23T07:21:59.757Z,11.98
2023-08-23T07:25:01.521Z,12.30
2023-08-23T07:28:03.308Z,13.68
2023-08-23T07:31:04.971Z,11.90
2023-08-23T07:34:06.692Z,12.63
2023-08-23T07:37:08.324Z,12.50
2023-08-23T07:40:10.756Z,13.93
2023-08-23T07:43:12.432Z,12.98
2023-08-23T07:46:14.151Z,12.65
2023-08-23T07:49:16.441Z,12.73
2023-08-23T07:52:18.251Z,12.18
2023-08-23T07:55:19.825Z,13.23
2023-08-23T07:58:21.463Z,12.95
2023-08-23T08:01:23.194Z,12.70
2023-08-23T08:04:26.137Z,10.25
2023-08-23T08:07:56.192Z,11.68
2023-08-23T08:10:51.195Z,10.88
2023-08-23T08:13:52.890Z,10.30
2023-08-23T08:16:54.472Z,11.07
2023-08-23T08:19:57.609Z,10.75
2023-08-23T08:22:59.867Z,10.20
2023-08-23T08:26:02.474Z,9.77
2023-08-23T08:29:06.467Z,9.75
2023-08-23T08:32:08.740Z,9.32
2023-08-23T08:35:10.734Z,9.98
2023-08-23T08:38:12.407Z,9.38
2023-08-23T08:41:14.294Z,10.55
2023-08-23T08:44:16.351Z,9.38
2023-08-23T08:47:17.980Z,9.48
2023-08-23T08:50:20.801Z,9.23
2023-08-23T08:53:24.228Z,9.45
2023-08-23T08:56:27.076Z,9.35
2023-08-23T08:59:29.211Z,9.80
2023-08-23T09:02:32.461Z,9.38
2023-08-23T09:05:34.864Z,8.63
2023-08-23T09:08:41.727Z,8.27
2023-08-23T09:11:43.384Z,8.60
2023-08-23T09:14:50.089Z,7.43
2023-08-23T09:17:55.954Z,8.50
2023-08-23T09:20:57.641Z,8.05
2023-08-23T09:24:02.414Z,8.13
2023-08-23T09:27:04.284Z,6.85
2023-08-23T09:30:06.646Z,7.32
2023-08-23T09:33:10.982Z,8.30
2023-08-23T09:36:13.235Z,8.38
2023-08-23T09:39:14.836Z,7.82
2023-08-23T09:42:16.974Z,7.82
2023-08-23T09:45:23.168Z,7.30
2023-08-23T09:48:27.002Z,8.02
2023-08-23T09:51:30.000Z,9.13
2023-08-23T09:55:04.249Z,8.07
2023-08-23T09:58:15.561Z,5.53
2023-08-23T10:01:19.746Z,6.40
2023-08-23T10:04:25.798Z,6.57
2023-08-23T10:07:27.974Z,6.07
2023-08-23T10:10:31.780Z,7.10
2023-08-23T10:13:35.655Z,6.15
2023-08-23T10:16:37.903Z,7.20
2023-08-23T10:19:39.648Z,5.47
2023-08-23T10:22:41.953Z,5.75
2023-08-23T10:25:44.760Z,5.55
2023-08-23T10:28:53.394Z,6.43
2023-08-23T10:31:56.152Z,5.90
2023-08-23T10:34:57.735Z,4.60
2023-08-23T10:38:00.464Z,5.28
2023-08-23T10:41:02.776Z,4.97
2023-08-23T10:44:15.167Z,5.40
2023-08-23T10:47:17.290Z,5.57
2023-08-23T10:50:20.319Z,5.75
2023-08-23T10:53:24.567Z,5.32
2023-08-23T10:56:29.415Z,5.63
2023-08-23T10:59:31.043Z,5.85
2023-08-23T11:02:33.760Z,4.70
2023-08-23T11:05:35.902Z,6.82
2023-08-23T11:08:37.658Z,5.43
2023-08-23T11:11:39.270Z,4.63
2023-08-23T11:14:40.935Z,4.63
2023-08-23T11:17:42.617Z,4.93
2023-08-23T11:20:44.568Z,4.97
2023-08-23T11:23:46.198Z,4.15
2023-08-23T11:26:47.791Z,5.05
2023-08-23T11:29:49.583Z,5.88
2023-08-23T11:32:51.242Z,4.75
2023-08-23T11:35:53.272Z,5.97
2023-08-23T11:38:54.918Z,5.55
2023-08-23T11:42:00.099Z,5.10
2023-08-23T11:45:06.416Z,5.28
2023-08-23T11:48:09.189Z,6.13
2023-08-23T11:51:10.889Z,4.55
2023-08-23T11:54:12.910Z,5.43
2023-08-23T11:57:24.070Z,4.88
2023-08-23T12:00:25.956Z,5.20
2023-08-23T12:03:27.698Z,5.20
2023-08-23T12:06:29.674Z,4.93
2023-08-23T12:09:31.565Z,5.40
2023-08-23T12:12:33.148Z,5.03
2023-08-23T12:15:35.436Z,5.47
2023-08-23T12:18:38.006Z,5.10
2023-08-23T12:21:39.602Z,4.60
2023-08-23T12:24:41.825Z,4.65
2023-08-23T12:27:43.947Z,5.30
2023-08-23T12:30:45.610Z,5.65
2023-08-23T12:33:47.601Z,2.72
2023-08-23T12:36:49.325Z,5.32
2023-08-23T12:39:50.943Z,5.38
2023-08-23T12:42:52.905Z,6.07
2023-08-23T12:45:54.574Z,5.10
2023-08-23T12:48:56.279Z,4.93
2023-08-23T12:51:58.012Z,7.03
2023-08-23T12:54:59.660Z,5.50
2023-08-23T12:58:01.280Z,6.07
2023-08-23T13:01:03.612Z,5.72
2023-08-23T13:04:05.462Z,6.13
2023-08-23T13:07:07.104Z,5.10
2023-08-23T13:10:09.146Z,4.38
2023-08-23T13:13:10.924Z,4.55
2023-08-23T13:16:12.570Z,5.00
2023-08-23T13:19:14.346Z,4.72
2023-08-23T13:22:15.979Z,4.18
2023-08-23T13:25:18.225Z,3.42
2023-08-23T13:28:19.904Z,3.53
2023-08-23T13:31:24.558Z,3.30
2023-08-23T13:34:26.226Z,3.90
2023-08-23T13:37:27.841Z,3.42
2023-08-23T13:40:31.092Z,4.18
2023-08-23T13:43:33.606Z,3.85
2023-08-23T13:46:35.297Z,4.13
2023-08-23T13:49:36.985Z,4.10
2023-08-23T13:52:38.844Z,3.53
2023-08-23T13:55:40.440Z,3.45
2023-08-23T13:58:42.390Z,4.93
2023-08-23T14:01:45.433Z,3.60
2023-08-23T14:04:47.196Z,3.42
2023-08-23T14:07:49.092Z,4.43
2023-08-23T14:10:52.032Z,7.25
2023-08-23T14:13:53.727Z,3.33
2023-08-23T14:16:55.599Z,3.03
2023-08-23T14:19:57.204Z,3.00
2023-08-23T14:23:00.703Z,3.75
2023-08-23T14:26:04.992Z,4.88
2023-08-23T14:29:06.715Z,2.55
2023-08-23T14:32:08.711Z,3.63
2023-08-23T14:35:10.540Z,3.40
2023-08-23T14:38:14.674Z,3.28
2023-08-23T14:41:16.288Z,2.95
2023-08-23T14:44:17.987Z,3.95
2023-08-23T14:47:19.589Z,4.05
2023-08-23T14:50:23.440Z,3.88
2023-08-23T14:53:25.849Z,2.85
2023-08-23T14:56:27.484Z,4.40
2023-08-23T14:59:29.095Z,3.60
2023-08-23T15:02:30.855Z,4.05
2023-08-23T15:05:32.792Z,2.88
2023-08-23T15:08:34.435Z,2.80
2023-08-23T15:11:36.085Z,3.20
2023-08-23T15:14:37.726Z,1.98
2023-08-23T15:17:39.465Z,3.00
2023-08-23T15:20:41.136Z,2.72
2023-08-23T15:23:42.802Z,2.90
2023-08-23T15:26:44.428Z,2.45
2023-08-23T15:30:01.105Z,2.80
2023-08-23T15:33:09.437Z,2.85
2023-08-23T15:36:11.219Z,2.72
2023-08-23T15:39:13.173Z,3.17
2023-08-23T15:42:14.871Z,2.70
2023-08-23T15:45:19.561Z,2.80
2023-08-23T15:48:21.380Z,2.60
2023-08-23T15:51:23.059Z,2.13
2023-08-23T15:54:24.693Z,2.55
2023-08-23T15:57:26.300Z,2.60
2023-08-23T16:00:28.991Z,2.72
2023-08-23T16:03:30.681Z,2.20
2023-08-23T16:06:32.423Z,2.42
2023-08-23T16:09:34.103Z,2.78
2023-08-23T16:12:35.776Z,2.47
2023-08-23T16:15:37.386Z,2.50
2023-08-23T16:18:39.356Z,2.17
2023-08-23T16:21:42.303Z,2.60
2023-08-23T16:24:44.271Z,2.83
2023-08-23T16:27:46.055Z,2.75
2023-08-23T16:30:51.590Z,2.83
2023-08-23T16:33:53.505Z,2.47
2023-08-23T16:36:55.411Z,2.38
2023-08-23T16:39:57.042Z,2.78
2023-08-23T16:42:58.931Z,2.90
2023-08-23T16:46:00.879Z,2.90
2023-08-23T16:49:02.504Z,2.90
2023-08-23T16:52:04.579Z,2.72
2023-08-23T16:55:06.854Z,3.25
2023-08-23T16:58:08.519Z,3.20
2023-08-23T17:01:10.603Z,2.70
2023-08-23T17:04:12.281Z,3.10
2023-08-23T17:07:15.351Z,2.70
2023-08-23T17:10:17.175Z,3.13
2023-08-23T17:13:18.835Z,3.22
2023-08-23T17:16:22.468Z,3.38
2023-08-23T17:19:24.175Z,3.10
2023-08-23T17:22:25.845Z,3.05
2023-08-23T17:25:28.635Z,2.78
2023-08-23T17:28:30.234Z,3.10
2023-08-23T17:31:31.947Z,3.60
2023-08-23T17:34:33.585Z,3.33
2023-08-23T17:37:35.252Z,3.50
2023-08-23T17:40:37.164Z,3.20
2023-08-23T17:43:39.250Z,3.28
2023-08-23T17:46:42.900Z,3.30
2023-08-23T17:49:44.613Z,2.80
2023-08-23T17:52:47.840Z,2.70
2023-08-23T17:55:59.021Z,2.70
2023-08-23T17:59:00.678Z,2.47
2023-08-23T18:02:02.296Z,3.08
2023-08-23T18:05:04.461Z,2.65
2023-08-23T18:08:06.248Z,2.75
2023-08-23T18:11:08.432Z,2.70
2023-08-23T18:14:10.056Z,3.00
2023-08-23T18:17:11.724Z,3.03
2023-08-23T18:20:13.350Z,3.08
2023-08-23T18:23:15.157Z,2.72
2023-08-23T18:26:16.745Z,3.45
2023-08-23T18:29:18.377Z,3.65
2023-08-23T18:32:20.000Z,3.20
2023-08-23T18:35:21.618Z,3.97
2023-08-23T18:38:23.394Z,3.40
2023-08-23T18:41:25.040Z,3.50
2023-08-23T18:44:27.839Z,3.58
2023-08-23T18:47:30.637Z,3.63
2023-08-23T18:50:32.435Z,3.70
2023-08-23T18:53:34.883Z,4.30
2023-08-23T18:56:38.786Z,3.83
2023-08-23T18:59:40.372Z,3.97
2023-08-23T19:02:42.223Z,5.32
2023-08-23T19:05:44.035Z,4.82
2023-08-23T19:08:45.762Z,4.57
2023-08-23T19:11:47.504Z,3.90
2023-08-23T19:14:49.125Z,3.75
2023-08-23T19:17:53.534Z,4.03
2023-08-23T19:20:55.290Z,4.00
2023-08-23T19:23:56.963Z,3.95
2023-08-23T19:26:58.716Z,3.58
2023-08-23T19:30:00.419Z,4.05
2023-08-23T19:33:02.157Z,4.50
2023-08-23T19:36:04.868Z,3.72
2023-08-23T19:39:06.446Z,4.30
2023-08-23T19:42:08.141Z,4.63
2023-08-23T19:45:12.287Z,4.35
2023-08-23T19:48:31.698Z,4.72
2023-08-23T19:51:41.664Z,5.20
2023-08-23T19:54:43.829Z,4.97
2023-08-23T19:57:48.257Z,4.95
2023-08-23T20:00:50.296Z,5.63
2023-08-23T20:03:52.651Z,5.25
2023-08-23T20:06:54.283Z,6.13
2023-08-23T20:09:55.868Z,5.85
2023-08-23T20:12:57.541Z,5.88
2023-08-23T20:15:59.670Z,5.85
2023-08-23T20:19:02.142Z,6.15
2023-08-23T20:22:03.910Z,6.05
2023-08-23T20:25:06.322Z,6.45
2023-08-23T20:28:07.966Z,6.57
2023-08-23T20:31:09.745Z,6.68
2023-08-23T20:34:11.356Z,7.63
2023-08-23T20:37:13.386Z,7.22
2023-08-23T20:40:15.172Z,6.90
2023-08-23T20:43:17.300Z,7.10
2023-08-23T20:46:18.994Z,8.48
2023-08-23T20:49:20.679Z,8.00
2023-08-23T20:52:22.257Z,8.00
2023-08-23T20:55:23.846Z,8.00
2023-08-23T20:58:25.442Z,8.07
2023-08-23T21:01:27.275Z,7.90
2023-08-23T21:04:31.670Z,7.43
2023-08-23T21:07:34.674Z,6.90
2023-08-23T21:10:41.076Z,6.43
2023-08-23T21:13:42.921Z,6.53
2023-08-23T21:16:45.332Z,6.28
2023-08-23T21:19:48.038Z,7.10
2023-08-23T21:22:49.766Z,6.10
2023-08-23T21:25:51.815Z,6.40
2023-08-23T21:28:53.635Z,6.30
2023-08-23T21:31:55.335Z,6.60
2023-08-23T21:34:57.216Z,6.22
2023-08-23T21:37:59.726Z,5.80
2023-08-23T21:41:01.442Z,5.90
2023-08-23T21:44:03.081Z,6.22
2023-08-23T21:47:04.780Z,6.28
2023-08-23T21:50:07.025Z,5.93
2023-08-23T21:53:08.689Z,5.97
2023-08-23T21:56:10.418Z,6.63
2023-08-23T21:59:14.232Z,6.65
2023-08-23T22:02:15.983Z,6.80
2023-08-23T22:05:17.851Z,6.88
2023-08-23T22:08:19.535Z,6.38
2023-08-23T22:11:23.290Z,6.40
2023-08-23T22:14:24.887Z,7.13
2023-08-23T22:17:26.548Z,7.15
2023-08-23T22:20:28.291Z,6.88
2023-08-23T22:23:30.009Z,6.95
2023-08-23T22:26:32.214Z,6.70
2023-08-23T22:29:33.880Z,7.38
2023-08-23T22:32:35.522Z,5.65
2023-08-23T22:35:38.567Z,7.50
2023-08-23T22:38:44.369Z,6.57
2023-08-23T22:41:46.235Z,7.97
2023-08-23T22:44:47.953Z,7.63
2023-08-23T22:47:49.803Z,8.05
2023-08-23T22:54:17.413Z,7.68
2023-08-23T22:57:19.087Z,7.15
2023-08-23T23:00:20.776Z,7.80
2023-08-23T23:03:22.441Z,8.23
2023-08-23T23:06:24.244Z,9.18
2023-08-23T23:09:25.854Z,9.20
2023-08-23T23:12:28.737Z,9.45
2023-08-23T23:15:30.460Z,9.07
2023-08-23T23:18:38.372Z,10.40
2023-08-23T23:21:39.981Z,11.43
2023-08-23T23:24:41.651Z,11.18
2023-08-23T23:27:43.395Z,11.15
2023-08-23T23:30:45.067Z,11.20
2023-08-23T23:33:46.778Z,10.70
2023-08-23T23:36:48.965Z,10.10
2023-08-23T23:39:52.347Z,10.50
2023-08-23T23:42:55.094Z,10.10
2023-08-23T23:45:56.785Z,10.50
2023-08-23T23:48:58.415Z,9.73
2023-08-23T23:52:00.004Z,10.20
2023-08-23T23:55:01.859Z,9.88
2023-08-23T23:58:06.792Z,9.98
